Time;durP1;ratioP1;P1;durP2;ratioP2;P2;SDS_P1;SDS_P2;PMS_P1;PMS_P2;Temp;Humidity;BMP_temperature;BMP_pressure;BME280_temperature;BME280_humidity;BME280_pressure;Samples;Min_cycle;Max_cycle;Signal;HPM_P1;HPM_P2
2023/10/21 00:00:24;;;;;;;1.30;1.20;;;14.90;75.90;;;;;;5019400;28;20057;-79
2023/10/21 00:02:51;;;;;;;1.50;1.27;;;14.90;75.90;;;;;;5036974;28;20434;-77
2023/10/21 00:05:17;;;;;;;1.45;1.35;;;14.90;75.90;;;;;;5017715;28;20045;-78
2023/10/21 00:07:43;;;;;;;2.08;1.60;;;14.90;75.90;;;;;;5031473;28;20152;-78
2023/10/21 00:10:09;;;;;;;1.55;1.42;;;14.90;75.90;;;;;;5039479;28;20132;-78
2023/10/21 00:12:36;;;;;;;1.33;1.23;;;14.80;75.90;;;;;;5016508;28;20083;-78
2023/10/21 00:15:06;;;;;;;1.35;1.30;;;14.80;75.90;;;;;;5013392;28;20449;-78
2023/10/21 00:17:33;;;;;;;1.40;1.30;;;14.90;75.90;;;;;;5029754;28;20027;-77
2023/10/21 00:20:00;;;;;;;1.85;1.38;;;14.90;75.90;;;;;;5027490;28;20078;-75
2023/10/21 00:22:26;;;;;;;1.40;1.30;;;14.80;75.90;;;;;;5038213;28;20021;-76
2023/10/21 00:24:52;;;;;;;1.73;1.50;;;14.80;75.90;;;;;;5014417;28;20030;-78
2023/10/21 00:27:18;;;;;;;1.55;1.42;;;14.80;75.90;;;;;;5033179;28;20498;-78
2023/10/21 00:29:44;;;;;;;1.40;1.30;;;14.80;75.90;;;;;;5028403;28;20049;-75
2023/10/21 00:32:10;;;;;;;1.60;1.50;;;14.80;75.90;;;;;;5000926;28;20025;-76
2023/10/21 00:34:39;;;;;;;2.20;1.65;;;14.80;75.90;;;;;;5000610;28;20116;-76
2023/10/21 00:37:10;;;;;;;1.58;1.40;;;14.80;75.90;;;;;;5019296;28;20037;-78
2023/10/21 00:39:37;;;;;;;1.35;1.25;;;14.80;75.90;;;;;;5015533;28;20030;-78
2023/10/21 00:42:04;;;;;;;1.48;1.38;;;14.80;75.90;;;;;;5032976;28;20029;-78
2023/10/21 00:44:30;;;;;;;1.70;1.60;;;14.80;76.00;;;;;;5018238;28;20370;-78
2023/10/21 00:46:59;;;;;;;3.10;1.50;;;14.70;76.00;;;;;;5040334;28;20626;-75
2023/10/21 00:49:29;;;;;;;1.73;1.50;;;14.70;76.00;;;;;;5025123;28;20071;-75
2023/10/21 00:51:56;;;;;;;1.65;1.55;;;14.70;76.60;;;;;;5018624;28;20045;-75
2023/10/21 00:54:24;;;;;;;1.33;1.23;;;14.70;75.90;;;;;;5034133;28;20052;-77
2023/10/21 00:56:51;;;;;;;1.80;1.70;;;14.70;75.90;;;;;;5019609;28;20059;-78
2023/10/21 00:59:17;;;;;;;1.70;1.60;;;14.70;75.90;;;;;;5017299;28;20474;-78
2023/10/21 01:01:44;;;;;;;1.50;1.38;;;14.70;75.90;;;;;;5032850;28;20030;-78
2023/10/21 01:04:11;;;;;;;1.85;1.48;;;14.70;75.90;;;;;;5017513;28;20102;-79
2023/10/21 01:06:37;;;;;;;1.48;1.38;;;14.70;76.00;;;;;;5032535;28;20041;-78
2023/10/21 01:09:03;;;;;;;1.75;1.50;;;14.70;76.00;;;;;;5034428;28;20064;-78
2023/10/21 01:11:28;;;;;;;1.40;1.30;;;14.70;75.90;;;;;;5015489;28;20815;-78
2023/10/21 01:13:56;;;;;;;1.45;1.35;;;14.70;75.90;;;;;;5026460;28;20036;-78
2023/10/21 01:16:22;;;;;;;2.85;1.60;;;14.70;75.90;;;;;;4998955;28;20026;-79
2023/10/21 01:18:48;;;;;;;1.58;1.48;;;14.70;76.00;;;;;;5039338;28;20021;-79
2023/10/21 01:21:14;;;;;;;1.90;1.40;;;14.60;75.90;;;;;;4999332;28;20378;-78
2023/10/21 01:23:40;;;;;;;1.98;1.60;;;14.60;76.00;;;;;;5016304;28;20534;-78
2023/10/21 01:26:06;;;;;;;2.25;1.75;;;14.60;76.00;;;;;;5027792;28;20140;-75
2023/10/21 01:28:33;;;;;;;1.50;1.40;;;14.70;76.00;;;;;;5019231;28;20113;-75
2023/10/21 01:30:59;;;;;;;1.50;1.40;;;14.60;76.00;;;;;;5029736;28;20021;-75
2023/10/21 01:33:25;;;;;;;1.77;1.48;;;14.60;76.00;;;;;;5032566;28;20100;-78
2023/10/21 01:35:51;;;;;;;1.90;1.70;;;14.60;76.00;;;;;;5031288;28;20108;-78
2023/10/21 01:38:18;;;;;;;1.70;1.58;;;14.60;75.90;;;;;;5017050;28;20102;-78
2023/10/21 01:40:44;;;;;;;1.58;1.48;;;14.60;76.00;;;;;;5024461;28;20030;-79
2023/10/21 01:43:10;;;;;;;1.42;1.33;;;14.60;76.00;;;;;;5042659;28;20018;-75
2023/10/21 01:45:36;;;;;;;1.60;1.50;;;14.60;76.00;;;;;;5009145;28;20132;-75
2023/10/21 01:48:03;;;;;;;1.58;1.48;;;14.60;76.00;;;;;;5021632;28;20033;-75
2023/10/21 01:50:29;;;;;;;1.60;1.50;;;14.60;76.00;;;;;;5038643;28;20462;-77
2023/10/21 01:52:56;;;;;;;1.40;1.30;;;14.60;76.00;;;;;;5026406;28;20029;-78
2023/10/21 01:55:22;;;;;;;1.60;1.50;;;14.60;76.00;;;;;;5036644;28;20036;-80
2023/10/21 01:57:48;;;;;;;1.40;1.30;;;14.60;76.00;;;;;;5031107;28;20053;-78
2023/10/21 02:00:18;;;;;;;1.40;1.30;;;14.60;76.00;;;;;;5019652;28;20044;-79
2023/10/21 02:02:55;;;;;;;1.50;1.30;;;14.60;76.00;;;;;;5028435;28;20386;-78
2023/10/21 02:05:22;;;;;;;1.50;1.40;;;14.60;76.10;;;;;;5038754;28;20029;-78
2023/10/21 02:07:49;;;;;;;1.52;1.42;;;14.60;76.00;;;;;;5038665;28;20025;-75
2023/10/21 02:10:17;;;;;;;1.25;1.20;;;14.60;76.00;;;;;;5041129;28;20028;-75
2023/10/21 02:12:43;;;;;;;1.58;1.30;;;14.60;76.00;;;;;;5042386;28;20041;-77
2023/10/21 02:15:14;;;;;;;1.30;1.20;;;14.60;76.00;;;;;;5032986;28;20112;-75
2023/10/21 02:17:46;;;;;;;1.38;1.27;;;14.60;76.10;;;;;;4995994;28;20072;-78
2023/10/21 02:20:14;;;;;;;2.05;1.45;;;14.60;76.10;;;;;;5025956;28;20022;-75
2023/10/21 02:22:40;;;;;;;1.50;1.40;;;14.60;76.00;;;;;;5023400;28;20116;-75
2023/10/21 02:25:11;;;;;;;1.20;1.10;;;14.60;76.00;;;;;;5002754;28;20379;-78
2023/10/21 02:27:39;;;;;;;1.50;1.40;;;14.50;76.00;;;;;;5018074;28;20228;-79
2023/10/21 02:30:07;;;;;;;1.30;1.20;;;14.60;76.00;;;;;;5031538;28;20061;-78
2023/10/21 02:32:33;;;;;;;1.40;1.30;;;14.50;76.00;;;;;;5032248;28;20452;-79
2023/10/21 02:34:59;;;;;;;1.50;1.40;;;14.50;76.00;;;;;;5013595;28;20037;-75
2023/10/21 02:37:25;;;;;;;1.40;1.30;;;14.50;76.00;;;;;;5043697;28;20021;-75
2023/10/21 02:39:50;;;;;;;1.38;1.27;;;14.50;76.00;;;;;;5012484;28;20034;-78
2023/10/21 02:42:16;;;;;;;1.70;1.60;;;14.50;76.00;;;;;;5023898;28;20040;-78
2023/10/21 02:44:42;;;;;;;1.33;1.23;;;14.50;76.00;;;;;;5005367;28;20120;-78
2023/10/21 02:47:07;;;;;;;2.53;1.60;;;14.50;76.00;;;;;;5017147;28;20466;-78
2023/10/21 02:49:33;;;;;;;1.40;1.30;;;14.50;75.90;;;;;;5022135;28;20030;-78
2023/10/21 02:51:59;;;;;;;1.50;1.40;;;14.50;76.00;;;;;;5019556;28;20029;-78
2023/10/21 02:54:25;;;;;;;1.30;1.17;;;14.50;76.00;;;;;;4999476;28;20095;-78
2023/10/21 02:56:51;;;;;;;1.35;1.25;;;14.50;76.00;;;;;;5022615;28;20036;-78
2023/10/21 02:59:17;;;;;;;1.38;1.27;;;14.50;76.70;;;;;;5000983;28;20041;-78
2023/10/21 03:01:42;;;;;;;1.40;1.30;;;14.50;76.10;;;;;;5033490;28;20069;-78
2023/10/21 03:04:08;;;;;;;1.67;1.40;;;14.50;76.00;;;;;;4986458;28;20058;-79
2023/10/21 03:06:34;;;;;;;1.45;1.35;;;14.50;76.00;;;;;;5021302;28;20487;-76
2023/10/21 03:09:00;;;;;;;1.30;1.20;;;14.50;76.10;;;;;;5030473;28;20059;-78
2023/10/21 03:11:26;;;;;;;1.40;1.30;;;14.50;76.10;;;;;;5005650;28;20462;-79
2023/10/21 03:13:53;;;;;;;1.40;1.30;;;14.50;76.10;;;;;;5032800;28;20486;-75
2023/10/21 03:16:18;;;;;;;1.23;1.13;;;14.50;76.10;;;;;;5016041;28;20030;-75
2023/10/21 03:18:45;;;;;;;1.40;1.30;;;14.50;76.10;;;;;;4997928;28;20033;-75
2023/10/21 03:21:13;;;;;;;1.27;1.17;;;14.50;76.10;;;;;;5022189;28;20065;-75
2023/10/21 03:23:39;;;;;;;1.88;1.40;;;14.50;76.10;;;;;;5020722;28;20101;-78
2023/10/21 03:26:06;;;;;;;1.33;1.23;;;14.50;76.10;;;;;;5032582;28;20487;-78
2023/10/21 03:28:33;;;;;;;1.40;1.30;;;14.50;76.10;;;;;;5018022;28;20454;-78
2023/10/21 03:31:00;;;;;;;1.52;1.42;;;14.50;76.20;;;;;;5033149;28;20434;-78
2023/10/21 03:33:27;;;;;;;1.35;1.25;;;14.50;76.20;;;;;;5015522;28;20045;-78
2023/10/21 03:35:57;;;;;;;1.48;1.38;;;14.40;76.20;;;;;;5008263;28;20033;-78
2023/10/21 03:38:24;;;;;;;1.50;1.40;;;14.40;76.20;;;;;;5018392;28;20041;-80
2023/10/21 03:41:06;;;;;;;1.30;1.23;;;14.40;76.20;;;;;;5012633;28;20033;-78
2023/10/21 03:43:32;;;;;;;1.48;1.33;;;14.40;76.20;;;;;;5031491;28;20036;-78
2023/10/21 03:46:06;;;;;;;1.40;1.30;;;14.40;76.20;;;;;;4998425;28;20100;-78
2023/10/21 03:48:33;;;;;;;1.27;1.20;;;14.50;76.30;;;;;;5024613;28;20030;-78
2023/10/21 03:51:25;;;;;;;1.80;1.40;;;14.40;76.20;;;;;;5030076;28;20025;-78
2023/10/21 03:53:50;;;;;;;1.50;1.40;;;14.40;76.30;;;;;;5022856;28;20464;-80
2023/10/21 03:56:16;;;;;;;1.58;1.48;;;14.40;76.20;;;;;;5013106;28;20121;-79
2023/10/21 03:58:42;;;;;;;1.30;1.20;;;14.40;76.20;;;;;;5000923;28;20490;-79
2023/10/21 04:01:08;;;;;;;1.25;1.17;;;14.40;76.30;;;;;;5013501;28;20041;-78
2023/10/21 04:03:35;;;;;;;1.40;1.30;;;14.40;76.30;;;;;;5031901;28;20025;-78
2023/10/21 04:06:01;;;;;;;1.67;1.50;;;14.40;76.20;;;;;;5014891;28;20390;-79
2023/10/21 04:08:28;;;;;;;2.47;1.50;;;14.40;76.20;;;;;;5031984;28;20058;-81
2023/10/21 04:10:54;;;;;;;1.52;1.40;;;14.40;76.20;;;;;;5032577;28;20363;-79
2023/10/21 04:13:20;;;;;;;1.40;1.30;;;14.40;76.30;;;;;;4996085;28;20042;-78
2023/10/21 04:15:46;;;;;;;1.90;1.42;;;14.40;76.20;;;;;;5035379;28;20191;-75
2023/10/21 04:18:12;;;;;;;2.25;1.50;;;14.40;76.20;;;;;;5014423;28;20519;-78
2023/10/21 04:20:38;;;;;;;1.50;1.40;;;14.40;76.20;;;;;;4998922;28;20030;-78
2023/10/21 04:23:04;;;;;;;1.50;1.40;;;14.40;76.20;;;;;;5033709;28;20120;-79
2023/10/21 04:25:29;;;;;;;1.50;1.40;;;14.40;76.20;;;;;;5019134;28;20171;-75
2023/10/21 04:27:56;;;;;;;1.40;1.30;;;14.40;76.20;;;;;;5014038;28;20044;-75
2023/10/21 04:30:25;;;;;;;1.40;1.23;;;14.40;76.30;;;;;;5034530;28;20033;-78
2023/10/21 04:32:51;;;;;;;1.60;1.35;;;14.40;76.30;;;;;;5016082;28;20822;-78
2023/10/21 04:35:18;;;;;;;1.52;1.30;;;14.40;76.30;;;;;;5031676;28;20128;-79
2023/10/21 04:37:44;;;;;;;1.98;1.40;;;14.40;76.30;;;;;;5032310;28;20026;-76
2023/10/21 04:40:11;;;;;;;1.80;1.40;;;14.40;76.30;;;;;;5029358;28;20033;-75
2023/10/21 04:42:38;;;;;;;1.50;1.40;;;14.40;76.20;;;;;;5029635;28;20033;-76
2023/10/21 04:45:08;;;;;;;1.10;1.10;;;14.40;76.30;;;;;;5036417;28;20037;-75
2023/10/21 04:47:34;;;;;;;1.92;1.35;;;14.40;76.30;;;;;;5013277;28;20038;-79
2023/10/21 04:50:00;;;;;;;1.40;1.30;;;14.40;76.20;;;;;;5014282;28;20478;-75
2023/10/21 04:52:25;;;;;;;1.23;1.17;;;14.40;76.20;;;;;;5014577;28;20124;-78
2023/10/21 04:54:51;;;;;;;1.20;1.10;;;14.40;76.20;;;;;;5013738;28;20509;-78
2023/10/21 04:57:17;;;;;;;1.40;1.30;;;14.40;76.80;;;;;;5011621;28;20045;-75
2023/10/21 04:59:43;;;;;;;1.40;1.30;;;14.40;76.20;;;;;;5008921;28;20045;-79
2023/10/21 05:02:08;;;;;;;2.00;1.40;;;14.40;76.20;;;;;;4997293;28;20030;-78
2023/10/21 05:04:35;;;;;;;1.40;1.30;;;14.40;76.10;;;;;;5032632;28;20065;-79
2023/10/21 05:07:02;;;;;;;1.50;1.40;;;14.40;76.20;;;;;;5040185;28;20033;-78
2023/10/21 05:09:28;;;;;;;1.40;1.30;;;14.40;76.20;;;;;;5032342;28;20076;-75
2023/10/21 05:11:54;;;;;;;1.23;1.17;;;14.40;76.20;;;;;;5017450;28;20033;-75
2023/10/21 05:14:20;;;;;;;1.27;1.17;;;14.40;76.20;;;;;;4999127;28;20030;-78
2023/10/21 05:16:46;;;;;;;1.40;1.30;;;14.40;76.10;;;;;;5012362;28;20026;-78
2023/10/21 05:19:12;;;;;;;1.30;1.20;;;14.40;76.10;;;;;;4997849;28;20078;-78
2023/10/21 05:21:37;;;;;;;1.35;1.25;;;14.30;76.00;;;;;;5038831;28;20449;-79
2023/10/21 05:24:03;;;;;;;1.30;1.20;;;14.40;76.10;;;;;;5020385;28;20051;-78
2023/10/21 05:26:29;;;;;;;1.63;1.52;;;14.40;76.10;;;;;;5031288;28;20065;-79
2023/10/21 05:28:57;;;;;;;1.42;1.30;;;14.40;76.10;;;;;;5040480;28;20032;-75
2023/10/21 05:31:23;;;;;;;1.30;1.20;;;14.40;76.10;;;;;;5024303;28;20493;-78
2023/10/21 05:33:49;;;;;;;1.33;1.20;;;14.30;76.00;;;;;;5031666;28;20092;-79
2023/10/21 05:36:15;;;;;;;1.73;1.30;;;14.40;76.10;;;;;;4989900;28;20120;-78
2023/10/21 05:38:40;;;;;;;1.42;1.33;;;14.30;76.10;;;;;;5016041;28;20470;-80
2023/10/21 05:41:06;;;;;;;1.30;1.20;;;14.40;76.10;;;;;;5038802;28;20056;-78
2023/10/21 05:43:32;;;;;;;1.40;1.30;;;14.30;76.00;;;;;;5033226;28;20075;-79
2023/10/21 05:46:03;;;;;;;1.20;1.20;;;14.30;76.00;;;;;;5027090;28;20033;-78
2023/10/21 05:48:28;;;;;;;1.45;1.35;;;14.40;76.10;;;;;;5031278;28;20017;-76
2023/10/21 05:51:02;;;;;;;1.40;1.30;;;14.30;76.00;;;;;;5008132;28;20036;-75
2023/10/21 05:53:28;;;;;;;1.40;1.30;;;14.30;76.10;;;;;;5033485;28;20036;-78
2023/10/21 05:55:57;;;;;;;1.38;1.27;;;14.30;76.00;;;;;;5013485;28;20060;-79
2023/10/21 05:58:29;;;;;;;1.30;1.20;;;14.30;76.00;;;;;;5038165;28;20052;-80
2023/10/21 06:00:54;;;;;;;1.60;1.40;;;14.30;76.00;;;;;;5036034;28;20104;-78
2023/10/21 06:03:20;;;;;;;1.45;1.35;;;14.30;76.00;;;;;;5032617;28;20561;-78
2023/10/21 06:05:46;;;;;;;1.58;1.23;;;14.30;76.10;;;;;;5030991;28;20037;-76
2023/10/21 06:08:12;;;;;;;1.55;1.40;;;14.30;76.10;;;;;;5015613;28;20029;-75
2023/10/21 06:10:39;;;;;;;1.42;1.33;;;14.30;76.10;;;;;;5013397;28;20041;-80
2023/10/21 06:13:05;;;;;;;1.38;1.27;;;14.30;76.10;;;;;;5016878;28;20135;-79
2023/10/21 06:15:32;;;;;;;1.45;1.33;;;14.30;76.10;;;;;;5030690;28;20026;-79
2023/10/21 06:17:59;;;;;;;1.42;1.33;;;14.30;76.00;;;;;;5001634;28;20029;-76
2023/10/21 06:20:24;;;;;;;1.33;1.23;;;14.30;76.00;;;;;;5031039;28;20034;-77
2023/10/21 06:22:51;;;;;;;1.60;1.50;;;14.30;76.00;;;;;;5040351;28;20041;-78
2023/10/21 06:25:16;;;;;;;1.40;1.30;;;14.30;76.00;;;;;;5011338;28;20025;-76
2023/10/21 06:27:42;;;;;;;1.63;1.40;;;14.30;76.00;;;;;;5031283;28;20045;-78
2023/10/21 06:30:08;;;;;;;1.05;1.05;;;14.30;76.00;;;;;;5036921;28;20083;-76
2023/10/21 06:32:34;;;;;;;1.25;1.20;;;14.20;76.00;;;;;;5039253;28;20037;-77
2023/10/21 06:35:00;;;;;;;1.40;1.30;;;14.30;76.00;;;;;;5018698;28;20037;-76
2023/10/21 06:37:26;;;;;;;1.40;1.30;;;14.30;76.00;;;;;;5017257;28;20025;-76
2023/10/21 06:39:51;;;;;;;1.55;1.45;;;14.20;76.00;;;;;;4979819;28;20064;-76
2023/10/21 06:42:17;;;;;;;1.30;1.20;;;14.20;76.00;;;;;;5048878;28;20025;-77
2023/10/21 06:44:43;;;;;;;1.42;1.33;;;14.20;76.60;;;;;;5021664;28;20037;-78
2023/10/21 06:47:09;;;;;;;1.35;1.27;;;14.20;76.00;;;;;;5024470;28;20124;-77
2023/10/21 06:49:34;;;;;;;1.25;1.15;;;14.20;76.00;;;;;;5022426;28;20064;-77
2023/10/21 06:52:00;;;;;;;1.30;1.20;;;14.20;76.00;;;;;;5013550;28;20133;-77
2023/10/21 06:54:26;;;;;;;2.40;1.20;;;14.20;76.00;;;;;;5027624;28;20536;-77
2023/10/21 06:56:52;;;;;;;1.30;1.20;;;14.20;76.00;;;;;;5033093;28;20037;-77
2023/10/21 06:59:18;;;;;;;1.35;1.25;;;14.20;76.00;;;;;;5017030;28;20391;-77
2023/10/21 07:01:43;;;;;;;1.40;1.30;;;14.20;76.00;;;;;;5044426;28;20036;-79
2023/10/21 07:04:10;;;;;;;1.75;1.52;;;14.20;76.00;;;;;;5010497;28;20068;-77
2023/10/21 07:06:39;;;;;;;1.40;1.30;;;14.20;76.10;;;;;;5017754;28;20030;-77
2023/10/21 07:09:06;;;;;;;1.35;1.25;;;14.20;76.10;;;;;;5039451;28;20067;-77
2023/10/21 07:11:33;;;;;;;1.27;1.23;;;14.20;76.10;;;;;;5014027;28;20037;-76
2023/10/21 07:13:59;;;;;;;1.77;1.40;;;14.20;76.10;;;;;;5033760;28;20045;-80
2023/10/21 07:16:25;;;;;;;1.40;1.30;;;14.20;76.20;;;;;;5043919;28;20031;-77
2023/10/21 07:18:50;;;;;;;1.50;1.40;;;14.20;76.30;;;;;;5015733;28;20398;-79
2023/10/21 07:21:16;;;;;;;1.33;1.23;;;14.20;76.20;;;;;;5035233;28;20037;-80
2023/10/21 07:23:42;;;;;;;1.45;1.35;;;14.20;76.20;;;;;;5030582;28;20555;-79
2023/10/21 07:26:08;;;;;;;1.42;1.30;;;14.20;76.20;;;;;;5045174;28;20043;-79
2023/10/21 07:28:34;;;;;;;1.67;1.40;;;14.20;76.30;;;;;;5032274;28;20021;-76
2023/10/21 07:31:00;;;;;;;1.75;1.38;;;14.20;76.30;;;;;;5026423;28;20147;-77
2023/10/21 07:33:27;;;;;;;1.20;1.10;;;14.30;76.30;;;;;;5032131;28;20029;-76
2023/10/21 07:35:53;;;;;;;1.35;1.25;;;14.30;76.30;;;;;;5015068;28;20029;-76
2023/10/21 07:38:22;;;;;;;1.30;1.23;;;14.30;76.30;;;;;;5020608;28;20533;-78
2023/10/21 07:40:48;;;;;;;1.45;1.35;;;14.30;76.30;;;;;;4999617;28;20048;-80
2023/10/21 07:43:17;;;;;;;1.67;1.40;;;14.30;76.40;;;;;;5040110;28;20025;-78
2023/10/21 07:45:44;;;;;;;1.20;1.10;;;14.30;76.40;;;;;;5037262;28;20036;-79
2023/10/21 07:48:10;;;;;;;1.85;1.58;;;14.30;76.40;;;;;;5026830;28;20384;-78
2023/10/21 07:50:37;;;;;;;2.33;1.40;;;14.30;76.50;;;;;;5016172;28;20076;-78
2023/10/21 07:53:03;;;;;;;1.30;1.20;;;14.30;76.40;;;;;;5016593;28;20034;-78
2023/10/21 07:55:29;;;;;;;1.50;1.40;;;14.30;76.40;;;;;;5032117;28;20032;-77
2023/10/21 07:57:55;;;;;;;2.03;1.42;;;14.40;76.50;;;;;;5015113;28;20034;-78
2023/10/21 08:00:21;;;;;;;2.40;1.70;;;14.40;76.50;;;;;;5032231;28;20037;-78
2023/10/21 08:02:47;;;;;;;1.48;1.33;;;14.40;76.50;;;;;;5004665;28;20124;-78
2023/10/21 08:05:15;;;;;;;1.50;1.40;;;14.40;76.50;;;;;;5039123;28;20037;-78
2023/10/21 08:07:41;;;;;;;2.60;1.50;;;14.40;76.50;;;;;;5022649;28;20090;-78
2023/10/21 08:10:07;;;;;;;2.17;1.50;;;14.40;76.50;;;;;;5033386;28;20818;-75
2023/10/21 08:12:34;;;;;;;2.65;1.58;;;14.50;76.50;;;;;;5032114;28;20033;-77
2023/10/21 08:15:10;;;;;;;1.83;1.40;;;14.50;76.60;;;;;;5045135;28;20470;-79
2023/10/21 08:17:36;;;;;;;1.67;1.23;;;14.50;76.60;;;;;;5029096;28;20025;-76
2023/10/21 08:20:02;;;;;;;3.92;1.50;;;14.50;76.50;;;;;;5039089;28;20031;-76
2023/10/21 08:22:28;;;;;;;1.52;1.20;;;14.50;76.50;;;;;;5028641;28;20017;-77
2023/10/21 08:24:54;;;;;;;2.45;1.45;;;14.50;76.50;;;;;;5017205;28;20041;-77
2023/10/21 08:27:20;;;;;;;2.05;1.58;;;14.60;76.60;;;;;;5044072;28;20079;-77
2023/10/21 08:29:47;;;;;;;1.75;1.45;;;14.60;76.60;;;;;;5034550;28;20033;-77
2023/10/21 08:32:13;;;;;;;1.83;1.60;;;14.60;76.60;;;;;;5031145;28;20022;-76
2023/10/21 08:34:38;;;;;;;1.67;1.40;;;14.60;76.60;;;;;;5020402;28;20030;-76
2023/10/21 08:37:05;;;;;;;1.52;1.38;;;14.60;76.60;;;;;;5002986;28;20470;-75
2023/10/21 08:39:30;;;;;;;1.92;1.20;;;14.70;76.60;;;;;;5037492;28;20032;-75
2023/10/21 08:41:56;;;;;;;2.15;1.45;;;14.70;76.60;;;;;;5023919;28;20382;-76
2023/10/21 08:44:23;;;;;;;1.33;1.20;;;14.70;76.70;;;;;;5032718;28;20052;-74
2023/10/21 08:46:51;;;;;;;1.73;1.40;;;14.70;76.70;;;;;;5014871;28;20021;-75
2023/10/21 08:49:19;;;;;;;1.30;1.10;;;14.70;76.80;;;;;;5018708;28;20429;-75
2023/10/21 08:51:47;;;;;;;1.15;1.00;;;14.70;76.80;;;;;;5042798;28;20081;-75
2023/10/21 08:54:14;;;;;;;1.52;1.17;;;14.80;76.80;;;;;;5042349;28;20041;-76
2023/10/21 08:56:40;;;;;;;1.25;1.13;;;14.80;76.80;;;;;;5042462;28;20474;-75
2023/10/21 08:59:05;;;;;;;1.65;1.30;;;14.80;76.70;;;;;;5037391;28;20032;-77
2023/10/21 09:01:31;;;;;;;2.38;1.23;;;14.80;76.70;;;;;;5032873;28;20029;-76
2023/10/21 09:03:57;;;;;;;1.77;1.17;;;14.90;76.60;;;;;;5021101;28;20123;-76
2023/10/21 09:06:23;;;;;;;1.00;1.00;;;14.90;76.50;;;;;;5040112;28;20369;-78
2023/10/21 09:08:49;;;;;;;1.45;1.35;;;14.90;76.50;;;;;;5035412;28;20045;-79
2023/10/21 09:11:17;;;;;;;1.55;1.10;;;15.00;76.50;;;;;;5030396;28;20935;-77
2023/10/21 09:13:43;;;;;;;1.10;1.00;;;15.00;76.50;;;;;;5000509;28;20493;-76
2023/10/21 09:16:30;;;;;;;1.50;1.10;;;15.10;76.40;;;;;;5035686;28;20025;-80
2023/10/21 09:19:06;;;;;;;1.00;0.90;;;15.10;76.50;;;;;;5032878;28;20021;-79
2023/10/21 09:21:38;;;;;;;1.23;0.90;;;15.10;76.40;;;;;;5015332;28;20105;-76
2023/10/21 09:24:11;;;;;;;1.17;1.00;;;15.20;76.40;;;;;;5038182;28;20035;-76
2023/10/21 09:26:46;;;;;;;1.20;1.13;;;15.20;76.40;;;;;;5017769;28;20038;-76
2023/10/21 09:29:13;;;;;;;1.10;0.93;;;15.20;76.40;;;;;;5027695;28;20390;-77
2023/10/21 09:31:52;;;;;;;1.92;1.10;;;15.20;76.40;;;;;;5041991;28;20045;-77
2023/10/21 09:34:31;;;;;;;1.52;1.00;;;15.20;76.40;;;;;;5032788;28;20486;-77
2023/10/21 09:36:59;;;;;;;0.88;0.88;;;15.20;76.40;;;;;;5035484;28;20037;-79
2023/10/21 09:39:33;;;;;;;1.17;1.00;;;15.30;76.40;;;;;;5033319;28;20028;-77
2023/10/21 09:42:00;;;;;;;1.20;1.10;;;15.30;76.50;;;;;;5000151;28;20479;-76
2023/10/21 09:44:26;;;;;;;1.20;0.95;;;15.30;76.40;;;;;;5022538;28;20318;-77
2023/10/21 09:46:55;;;;;;;1.60;0.82;;;15.40;76.50;;;;;;5017112;28;20045;-76
2023/10/21 09:49:24;;;;;;;0.90;0.90;;;15.40;76.50;;;;;;5039056;28;20025;-76
2023/10/21 09:52:09;;;;;;;1.10;1.00;;;15.40;76.50;;;;;;5037228;28;20029;-77
2023/10/21 09:54:42;;;;;;;;;;;15.50;76.60;;;;;;5024373;28;20104;-76
2023/10/21 09:57:12;;;;;;;1.48;0.98;;;15.40;76.30;;;;;;5031241;28;19944;-81
2023/10/21 09:59:44;;;;;;;1.00;0.90;;;15.50;77.00;;;;;;5042715;28;20026;-79
2023/10/21 10:02:11;;;;;;;2.28;1.00;;;15.50;76.40;;;;;;5004078;28;20090;-79
2023/10/21 10:04:39;;;;;;;4.13;1.23;;;15.50;76.40;;;;;;5025911;28;20022;-80
2023/10/21 10:07:08;;;;;;;2.25;1.02;;;15.50;76.50;;;;;;5017316;28;20034;-76
2023/10/21 10:09:39;;;;;;;2.10;1.20;;;15.50;76.50;;;;;;4994549;28;20390;-76
2023/10/21 10:12:17;;;;;;;1.95;1.10;;;15.60;76.60;;;;;;5042244;28;20022;-76
2023/10/21 10:14:43;;;;;;;1.23;0.90;;;15.60;76.70;;;;;;5036572;28;20038;-77
2023/10/21 10:17:09;;;;;;;1.27;0.80;;;15.70;76.60;;;;;;5021961;28;20029;-76
2023/10/21 10:19:40;;;;;;;1.50;1.05;;;15.70;76.60;;;;;;5000109;28;20030;-76
2023/10/21 10:22:27;;;;;;;1.30;0.93;;;15.70;76.60;;;;;;5038748;28;20022;-76
2023/10/21 10:25:15;;;;;;;1.08;0.77;;;15.70;76.70;;;;;;5036136;28;20034;-76
2023/10/21 10:27:42;;;;;;;1.55;0.98;;;15.70;76.60;;;;;;5020645;28;20474;-78
2023/10/21 10:30:21;;;;;;;0.93;0.80;;;15.80;76.60;;;;;;5021770;28;20036;-76
2023/10/21 10:32:51;;;;;;;1.50;0.93;;;15.80;76.70;;;;;;5018692;28;20378;-81
2023/10/21 10:35:31;;;;;;;1.27;0.90;;;15.80;76.70;;;;;;5033319;28;20045;-82
2023/10/21 10:37:59;;;;;;;1.73;0.98;;;15.80;76.70;;;;;;5035466;28;20124;-76
2023/10/21 10:40:36;;;;;;;1.63;1.08;;;15.80;76.60;;;;;;5035535;28;20067;-77
2023/10/21 10:43:03;;;;;;;1.10;0.90;;;15.90;76.80;;;;;;5039718;28;20462;-75
2023/10/21 10:45:32;;;;;;;0.90;0.80;;;15.90;76.70;;;;;;5038325;28;20144;-76
2023/10/21 10:48:02;;;;;;;3.35;1.05;;;15.90;76.70;;;;;;5039053;28;20393;-76
2023/10/21 10:50:36;;;;;;;1.05;0.90;;;16.00;76.70;;;;;;5035040;28;20029;-76
2023/10/21 10:53:14;;;;;;;1.07;1.07;;;16.00;76.70;;;;;;5039235;28;20120;-76
2023/10/21 10:55:46;;;;;;;1.65;0.90;;;16.00;76.70;;;;;;5037106;28;20056;-77
2023/10/21 10:58:12;;;;;;;1.00;0.88;;;16.10;76.70;;;;;;5046803;28;20049;-77
2023/10/21 11:00:39;;;;;;;1.27;0.95;;;16.00;76.60;;;;;;5043656;28;20055;-78
2023/10/21 11:03:06;;;;;;;2.58;0.90;;;16.10;76.60;;;;;;5040860;28;20033;-78
2023/10/21 11:05:32;;;;;;;1.08;0.85;;;16.10;76.60;;;;;;5037425;28;20033;-77
2023/10/21 11:07:59;;;;;;;1.67;0.93;;;16.10;76.60;;;;;;5023108;28;20033;-79
2023/10/21 11:10:25;;;;;;;2.60;0.90;;;16.10;76.60;;;;;;5027440;28;20053;-79
2023/10/21 11:12:52;;;;;;;0.73;0.73;;;16.20;76.60;;;;;;5006694;28;20055;-79
2023/10/21 11:15:19;;;;;;;1.48;0.95;;;16.20;76.70;;;;;;5047179;28;20060;-78
2023/10/21 11:17:50;;;;;;;1.10;1.00;;;16.20;76.60;;;;;;5020439;28;20044;-77
2023/10/21 11:20:18;;;;;;;1.13;1.02;;;16.20;76.60;;;;;;5012753;28;20377;-77
2023/10/21 11:22:44;;;;;;;0.80;0.80;;;16.30;76.60;;;;;;5039367;28;20033;-78
2023/10/21 11:25:09;;;;;;;2.05;1.10;;;16.30;76.50;;;;;;5020272;28;20134;-78
2023/10/21 11:27:39;;;;;;;1.13;1.00;;;16.30;76.50;;;;;;4988645;28;20030;-77
2023/10/21 11:30:08;;;;;;;0.90;0.80;;;16.30;76.50;;;;;;5023536;28;20120;-78
2023/10/21 11:32:36;;;;;;;1.55;0.90;;;16.40;76.50;;;;;;5036377;28;20022;-76
2023/10/21 11:35:09;;;;;;;1.13;1.02;;;16.40;76.40;;;;;;5042413;28;20037;-76
2023/10/21 11:37:36;;;;;;;0.70;0.70;;;16.40;76.40;;;;;;5005636;28;20061;-76
2023/10/21 11:40:03;;;;;;;0.80;0.80;;;16.40;76.30;;;;;;5041973;28;20167;-76
2023/10/21 11:42:28;;;;;;;0.85;0.80;;;16.50;76.30;;;;;;5009619;28;20040;-76
2023/10/21 11:44:59;;;;;;;1.23;1.00;;;16.50;76.30;;;;;;5008341;28;20033;-76
2023/10/21 11:47:27;;;;;;;0.90;0.80;;;16.50;76.40;;;;;;5039609;28;20037;-75
2023/10/21 11:49:54;;;;;;;0.95;0.82;;;16.50;76.30;;;;;;5043561;28;20387;-76
2023/10/21 11:52:21;;;;;;;1.58;0.82;;;16.50;76.30;;;;;;5016575;28;20030;-76
2023/10/21 12:40:32;;;;;;;1.05;0.80;;;17.00;75.80;;;;;;5024082;28;20042;-77
2023/10/21 12:45:46;;;;;;;1.17;1.05;;;17.00;75.70;;;;;;5009760;28;20517;-77
2023/10/21 12:48:19;;;;;;;1.05;0.80;;;17.00;75.60;;;;;;5025042;28;20061;-77
2023/10/21 12:50:51;;;;;;;0.80;0.80;;;17.10;75.70;;;;;;5024634;28;20044;-76
2023/10/21 12:53:18;;;;;;;1.13;1.00;;;17.10;75.70;;;;;;5022861;28;20053;-75
2023/10/21 12:55:44;;;;;;;0.70;0.68;;;17.10;75.60;;;;;;5011036;28;20098;-76
2023/10/21 12:58:10;;;;;;;0.80;0.80;;;17.10;75.60;;;;;;5023731;28;20034;-77
2023/10/21 13:00:36;;;;;;;1.35;0.80;;;17.10;75.60;;;;;;5026147;28;20037;-76
2023/10/21 13:03:10;;;;;;;0.93;0.80;;;17.20;75.60;;;;;;5024928;28;20032;-78
2023/10/21 13:05:37;;;;;;;1.23;0.85;;;17.20;75.60;;;;;;5025042;28;20042;-76
2023/10/21 13:08:07;;;;;;;1.48;1.00;;;17.20;75.50;;;;;;5024533;28;20048;-78
2023/10/21 13:10:33;;;;;;;1.42;1.05;;;17.20;75.50;;;;;;5025735;28;20060;-77
2023/10/21 13:13:02;;;;;;;0.90;0.80;;;17.30;75.50;;;;;;5008305;28;20104;-78
2023/10/21 13:15:29;;;;;;;1.08;0.88;;;17.30;75.50;;;;;;5008143;28;20493;-78
2023/10/21 13:17:55;;;;;;;0.93;0.88;;;17.30;75.40;;;;;;4991546;28;20041;-77
2023/10/21 13:20:21;;;;;;;1.48;1.00;;;17.30;75.40;;;;;;5025160;28;20045;-77
2023/10/21 13:22:47;;;;;;;1.45;0.85;;;17.40;75.40;;;;;;5023902;28;20160;-77
2023/10/21 13:25:13;;;;;;;1.35;1.10;;;17.40;75.30;;;;;;5006122;28;20034;-77
2023/10/21 13:27:42;;;;;;;1.05;0.88;;;17.40;75.30;;;;;;5025204;28;20034;-77
2023/10/21 13:30:15;;;;;;;1.33;1.13;;;17.40;75.30;;;;;;5007931;28;20056;-78
2023/10/21 13:32:46;;;;;;;1.00;0.90;;;17.40;75.20;;;;;;5022847;28;20029;-79
2023/10/21 13:35:14;;;;;;;1.45;0.80;;;17.50;75.30;;;;;;5005444;28;20437;-77
2023/10/21 13:37:43;;;;;;;1.88;0.93;;;17.50;75.20;;;;;;5023441;28;20099;-77